createdAt,value
2022-12-08T00:01:10.514Z,97464.19
2022-12-08T00:04:55.381Z,97468.92
2022-12-08T00:08:55.626Z,97469.25
2022-12-08T00:12:36.552Z,97466.83
2022-12-08T00:16:01.482Z,97461.45
2022-12-08T00:19:55.172Z,97465.10
2022-12-08T00:23:17.255Z,97471.83
2022-12-08T00:26:54.700Z,97472.98
2022-12-08T00:30:51.209Z,97476.15
2022-12-08T00:34:15.220Z,97479.30
2022-12-08T00:37:52.344Z,97485.95
2022-12-08T00:41:48.041Z,97490.81
2022-12-08T00:45:29.586Z,97495.19
2022-12-08T00:48:51.705Z,97493.05
2022-12-08T00:52:48.060Z,97502.27
2022-12-08T00:56:10.343Z,97503.89
2022-12-08T01:00:07.427Z,97507.64
2022-12-08T01:03:48.907Z,97510.27
2022-12-08T01:07:29.962Z,97512.76
2022-12-08T01:10:52.567Z,97510.31
2022-12-08T01:14:29.644Z,97512.84
2022-12-08T01:18:27.547Z,97510.62
2022-12-08T01:21:49.209Z,97513.42
2022-12-08T01:25:27.107Z,97514.09
2022-12-08T01:29:23.814Z,97517.20
2022-12-08T01:33:04.945Z,97520.23
2022-12-08T01:36:29.162Z,97515.70
2022-12-08T01:40:23.316Z,97515.84
2022-12-08T01:43:56.337Z,97513.16
2022-12-08T01:47:46.552Z,97519.59
2022-12-08T01:51:28.060Z,97520.30
2022-12-08T01:54:56.245Z,97519.33
2022-12-08T01:58:38.486Z,97516.10
2022-12-08T02:02:05.507Z,97513.17
2022-12-08T02:06:03.254Z,97508.43
2022-12-08T02:09:25.510Z,97509.46
2022-12-08T02:13:06.355Z,97507.84
2022-12-08T02:16:47.105Z,97504.89
2022-12-08T02:20:30.449Z,97503.58
2022-12-08T02:24:26.546Z,97502.02
2022-12-08T02:28:04.476Z,97504.75
2022-12-08T02:32:12.556Z,97504.84
2022-12-08T02:36:04.834Z,97503.62
2022-12-08T02:39:55.844Z,97505.38
2022-12-08T02:43:37.549Z,97504.35
2022-12-08T02:47:34.269Z,97512.20
2022-12-08T02:50:56.689Z,97510.09
2022-12-08T02:54:36.468Z,97506.96
2022-12-08T02:58:40.278Z,97506.85
2022-12-08T03:02:12.776Z,97510.66
2022-12-08T03:06:00.903Z,97513.21
2022-12-08T03:09:50.581Z,97510.90
2022-12-08T03:13:15.977Z,97511.80
2022-12-08T03:17:10.637Z,97514.83
2022-12-08T03:20:35.052Z,97510.73
2022-12-08T03:24:34.342Z,97507.98
2022-12-08T03:27:56.652Z,97510.86
2022-12-08T03:32:06.291Z,97508.86
2022-12-08T03:35:47.703Z,97512.63
2022-12-08T03:39:09.445Z,97512.60
2022-12-08T03:43:06.193Z,97514.54
2022-12-08T03:50:24.493Z,97507.99
2022-12-08T03:53:47.312Z,97509.27
2022-12-08T03:57:43.892Z,97507.79
2022-12-08T04:01:05.766Z,97507.55
2022-12-08T04:04:44.416Z,97510.13
2022-12-08T04:08:21.069Z,97511.10
2022-12-08T04:11:58.553Z,97507.39
2022-12-08T04:15:36.402Z,97508.21
2022-12-08T04:19:13.905Z,97512.88
2022-12-08T04:22:51.711Z,97509.38
2022-12-08T04:26:49.210Z,97511.77
2022-12-08T04:30:11.469Z,97509.45
2022-12-08T04:33:48.732Z,97507.01
2022-12-08T04:37:27.817Z,97501.73
2022-12-08T04:41:22.728Z,97501.02
2022-12-08T04:44:44.815Z,97500.11
2022-12-08T04:48:22.174Z,97498.73
2022-12-08T04:51:59.901Z,97495.21
2022-12-08T04:55:43.965Z,97493.44
2022-12-08T04:59:34.072Z,97487.96
2022-12-08T05:03:16.483Z,97486.66
2022-12-08T05:06:38.341Z,97488.00
2022-12-08T05:10:15.937Z,97489.48
2022-12-08T05:13:53.533Z,97498.51
2022-12-08T05:17:50.161Z,97496.73
2022-12-08T05:21:12.516Z,97483.59
2022-12-08T05:25:08.427Z,97491.06
2022-12-08T05:28:45.832Z,97493.80
2022-12-08T05:32:08.203Z,97496.91
2022-12-08T05:35:45.891Z,97501.30
2022-12-08T05:39:23.445Z,97499.27
2022-12-08T05:43:01.159Z,97506.80
2022-12-08T05:46:38.725Z,97501.59
2022-12-08T05:50:35.435Z,97502.80
2022-12-08T05:54:00.298Z,97503.02
2022-12-08T05:57:36.912Z,97501.67
2022-12-08T06:01:28.535Z,97504.77
2022-12-08T06:05:11.267Z,97509.97
2022-12-08T06:08:33.165Z,97511.91
2022-12-08T06:12:29.894Z,97509.23
2022-12-08T06:16:10.635Z,97512.38
2022-12-08T06:19:51.703Z,97515.24
2022-12-08T06:23:13.649Z,97515.73
2022-12-08T06:27:10.357Z,97514.27
2022-12-08T06:30:50.927Z,97517.83
2022-12-08T06:34:12.873Z,97517.86
2022-12-08T06:37:51.841Z,97521.48
2022-12-08T06:41:28.185Z,97527.13
2022-12-08T06:45:06.519Z,97536.08
2022-12-08T06:48:43.739Z,97543.21
2022-12-08T06:52:21.188Z,97547.34
2022-12-08T06:56:00.048Z,97547.33
2022-12-08T06:59:36.627Z,97546.16
2022-12-08T07:03:14.908Z,97554.23
2022-12-08T07:06:51.876Z,97551.59
2022-12-08T07:10:48.592Z,97554.14
2022-12-08T07:14:29.965Z,97558.23
2022-12-08T07:18:11.566Z,97558.67
2022-12-08T07:21:52.314Z,97561.69
2022-12-08T07:25:14.312Z,97556.84
2022-12-08T07:28:51.698Z,97550.04
2022-12-08T07:32:48.647Z,97557.40
2022-12-08T07:36:10.674Z,97555.31
2022-12-08T07:40:08.648Z,97550.23
2022-12-08T07:43:49.381Z,97549.14
2022-12-08T07:47:30.433Z,97543.08
2022-12-08T07:51:00.268Z,97547.90
2022-12-08T07:54:49.113Z,97548.79
2022-12-08T07:58:11.565Z,97548.05
2022-12-08T08:02:25.560Z,97551.70
2022-12-08T08:05:50.061Z,97556.95
2022-12-08T08:09:45.100Z,97554.52
2022-12-08T08:13:07.031Z,97551.39
2022-12-08T08:16:47.494Z,97547.69
2022-12-08T08:20:22.763Z,97544.92
2022-12-08T08:24:00.189Z,97539.28
2022-12-08T08:27:56.595Z,97540.61
2022-12-08T08:31:24.828Z,97537.26
2022-12-08T08:35:16.382Z,97535.06
2022-12-08T08:38:42.879Z,97535.43
2022-12-08T08:42:34.567Z,97530.18
2022-12-08T08:46:00.488Z,97529.10
2022-12-08T08:49:34.160Z,97528.36
2022-12-08T08:53:11.926Z,97527.72
2022-12-08T08:56:49.328Z,97528.52
2022-12-08T09:00:27.152Z,97531.15
2022-12-08T09:04:04.994Z,97531.79
2022-12-08T09:08:01.468Z,97531.14
2022-12-08T09:11:23.706Z,97532.66
2022-12-08T09:15:20.223Z,97529.65
2022-12-08T09:18:42.015Z,97527.70
2022-12-08T09:22:38.750Z,97526.52
2022-12-08T09:26:01.011Z,97520.81
2022-12-08T09:29:38.646Z,97517.92
2022-12-08T09:33:17.838Z,97513.27
2022-12-08T09:37:12.919Z,97507.29
2022-12-08T09:40:54.710Z,97501.64
2022-12-08T09:44:43.621Z,97497.74
2022-12-08T09:48:38.557Z,97494.06
2022-12-08T09:52:31.051Z,97491.27
2022-12-08T09:56:22.120Z,97490.33
2022-12-08T09:59:51.598Z,97487.02
2022-12-08T10:03:28.368Z,97486.10
2022-12-08T10:07:27.539Z,97482.43
2022-12-08T10:11:04.585Z,97483.01
2022-12-08T10:14:38.260Z,97477.48
2022-12-08T10:18:28.466Z,97470.83
2022-12-08T10:21:51.387Z,97469.58
2022-12-08T10:25:57.203Z,97463.92
2022-12-08T10:29:39.856Z,97458.35
2022-12-08T10:33:01.625Z,97450.17
2022-12-08T10:37:00.047Z,97445.77
2022-12-08T10:40:45.824Z,97440.23
2022-12-08T10:44:09.815Z,97442.80
2022-12-08T10:48:19.197Z,97440.19
2022-12-08T10:51:43.466Z,97437.11
2022-12-08T10:55:43.047Z,97430.11
2022-12-08T10:59:19.525Z,97420.17
2022-12-08T11:03:03.999Z,97422.58
2022-12-08T11:06:46.923Z,97422.30
2022-12-08T11:10:17.857Z,97421.46
2022-12-08T11:14:15.001Z,97422.63
2022-12-08T11:17:39.671Z,97419.91
2022-12-08T11:21:18.583Z,97416.06
2022-12-08T11:25:26.009Z,97415.35
2022-12-08T11:28:48.173Z,97413.94
2022-12-08T11:32:50.390Z,97411.59
2022-12-08T11:36:34.746Z,97415.37
2022-12-08T11:40:32.004Z,97422.20
2022-12-08T11:44:18.447Z,97419.93
2022-12-08T11:47:52.609Z,97423.03
2022-12-08T11:52:21.555Z,97422.60
2022-12-08T11:56:12.456Z,97424.39
2022-12-08T11:59:56.729Z,97427.29
2022-12-08T12:03:43.985Z,97427.28
2022-12-08T12:07:08.564Z,97419.69
2022-12-08T12:11:02.079Z,97417.40
2022-12-08T12:15:12.199Z,97418.11
2022-12-08T12:18:46.414Z,97417.91
2022-12-08T12:22:36.345Z,97416.92
2022-12-08T12:26:20.872Z,97412.18
2022-12-08T12:30:06.119Z,97414.82
2022-12-08T12:33:49.125Z,97418.54
2022-12-08T12:37:41.097Z,97413.83
2022-12-08T12:41:28.366Z,97412.81
2022-12-08T12:45:12.303Z,97407.92
2022-12-08T12:48:35.031Z,97401.17
2022-12-08T12:52:15.774Z,97395.45
2022-12-08T12:56:11.768Z,97394.09
2022-12-08T12:59:55.530Z,97392.27
2022-12-08T13:03:18.193Z,97389.78
2022-12-08T13:07:24.076Z,97387.91
2022-12-08T13:11:09.108Z,97389.08
2022-12-08T13:14:51.224Z,97386.40
2022-12-08T13:18:41.930Z,97389.09
2022-12-08T13:22:04.075Z,97391.83
2022-12-08T13:25:44.172Z,97397.34
2022-12-08T13:29:38.911Z,97395.23
2022-12-08T13:33:18.657Z,97393.36
2022-12-08T13:37:13.108Z,97395.70
2022-12-08T13:40:37.696Z,97396.94
2022-12-08T13:50:05.829Z,97398.53
2022-12-08T13:57:06.818Z,97404.10
2022-12-08T14:01:02.435Z,97406.75
2022-12-08T14:08:59.942Z,97407.27
2022-12-08T14:12:34.042Z,97407.60
2022-12-08T14:15:56.825Z,97405.70
2022-12-08T14:19:35.152Z,97410.55
2022-12-08T14:23:34.478Z,97412.39
2022-12-08T14:27:01.821Z,97419.77
2022-12-08T14:30:55.169Z,97421.04
2022-12-08T14:34:17.420Z,97424.02
2022-12-08T14:38:16.247Z,97425.36
2022-12-08T14:41:39.432Z,97419.52
2022-12-08T14:45:46.052Z,97421.90
2022-12-08T14:49:32.086Z,97418.89
2022-12-08T14:53:17.166Z,97422.77
2022-12-08T14:57:01.044Z,97420.48
2022-12-08T15:00:23.914Z,97418.00
2022-12-08T15:04:22.543Z,97423.68
2022-12-08T15:07:47.451Z,97424.73
2022-12-08T15:11:41.738Z,97423.11
2022-12-08T15:15:23.512Z,97424.73
2022-12-08T15:18:45.602Z,97426.52
2022-12-08T15:22:42.718Z,97422.84
2022-12-08T15:26:26.182Z,97423.47
2022-12-08T15:29:48.778Z,97426.10
2022-12-08T15:33:27.101Z,97426.88
2022-12-08T15:37:04.624Z,97423.76
2022-12-08T15:40:41.233Z,97421.52
2022-12-08T15:44:38.292Z,97425.41
2022-12-08T15:48:00.907Z,97423.16
2022-12-08T15:51:37.852Z,97418.80
2022-12-08T15:55:38.670Z,97421.66
2022-12-08T15:59:01.687Z,97417.48
2022-12-08T16:03:22.945Z,97413.29
2022-12-08T16:07:21.321Z,97409.00
2022-12-08T16:11:56.439Z,97405.30
2022-12-08T16:19:22.178Z,97404.30
2022-12-08T16:23:26.336Z,97402.60
2022-12-08T16:30:46.365Z,97406.69
2022-12-08T16:34:43.007Z,97409.65
2022-12-08T16:38:24.317Z,97407.20
2022-12-08T16:42:23.845Z,97404.27
2022-12-08T16:46:05.023Z,97406.73
2022-12-08T16:49:27.126Z,97409.36
2022-12-08T16:53:23.756Z,97409.30
2022-12-08T16:57:04.931Z,97411.17
2022-12-08T17:00:50.185Z,97404.85
2022-12-08T17:04:32.253Z,97401.11
2022-12-08T17:07:55.221Z,97403.79
2022-12-08T17:11:51.768Z,97396.73
2022-12-08T17:15:32.606Z,97401.24
2022-12-08T17:19:14.639Z,97397.60
2022-12-08T17:22:36.828Z,97400.73
2022-12-08T17:26:14.880Z,97399.84
2022-12-08T17:30:14.905Z,97400.45
2022-12-08T17:33:58.999Z,97404.86
2022-12-08T17:37:39.787Z,97401.94
2022-12-08T17:41:20.507Z,97405.83
2022-12-08T17:44:42.569Z,97400.78
2022-12-08T17:48:20.120Z,97397.64
2022-12-08T17:52:16.666Z,97398.59
2022-12-08T17:55:40.897Z,97395.10
2022-12-08T17:59:16.639Z,97394.98
2022-12-08T18:02:54.834Z,97395.00
2022-12-08T18:06:51.096Z,97392.31
2022-12-08T18:10:13.223Z,97388.70
2022-12-08T18:13:52.442Z,97388.70
2022-12-08T18:17:47.252Z,97389.90
2022-12-08T18:21:28.326Z,97387.59
2022-12-08T18:25:11.639Z,97386.55
2022-12-08T18:28:34.164Z,97386.05
2022-12-08T18:32:11.189Z,97383.66
2022-12-08T18:35:48.994Z,97378.54
2022-12-08T18:39:45.357Z,97375.59
2022-12-08T18:43:26.693Z,97373.55
2022-12-08T18:47:07.351Z,97369.36
2022-12-08T18:50:48.385Z,97368.52
2022-12-08T18:54:11.892Z,97370.64
2022-12-08T18:57:48.593Z,97365.27
2022-12-08T19:01:25.769Z,97366.75
2022-12-08T19:05:22.436Z,97370.08
2022-12-08T19:09:06.360Z,97372.27
2022-12-08T19:12:50.245Z,97375.06
2022-12-08T19:16:13.118Z,97376.16
2022-12-08T19:20:09.982Z,97383.15
2022-12-08T19:23:32.199Z,97381.48
2022-12-08T19:27:09.716Z,97377.71
2022-12-08T19:30:47.330Z,97378.02
2022-12-08T19:34:27.872Z,97376.96
2022-12-08T19:38:03.078Z,97368.56
2022-12-08T19:42:17.820Z,97369.66
2022-12-08T19:45:39.953Z,97365.86
2022-12-08T19:49:17.709Z,97367.40
2022-12-08T19:53:14.845Z,97363.05
2022-12-08T19:56:36.948Z,97354.65
2022-12-08T20:00:14.904Z,97350.35
2022-12-08T20:03:52.189Z,97348.91
2022-12-08T20:07:49.153Z,97352.96
2022-12-08T20:11:10.727Z,97355.96
2022-12-08T20:15:09.719Z,97356.70
2022-12-08T20:18:50.323Z,97350.95
2022-12-08T20:22:12.167Z,97351.92
2022-12-08T20:25:49.952Z,97358.09
2022-12-08T20:29:27.517Z,97359.64
2022-12-08T20:33:05.626Z,97358.73
2022-12-08T20:37:01.998Z,97353.11
2022-12-08T20:40:43.486Z,97356.78
2022-12-08T20:44:24.073Z,97355.55
2022-12-08T20:48:05.404Z,97349.08
2022-12-08T20:51:31.898Z,97354.33
2022-12-08T20:55:26.677Z,97354.23
2022-12-08T20:59:07.855Z,97355.42
2022-12-08T21:02:33.292Z,97353.95
2022-12-08T21:06:27.065Z,97355.52
2022-12-08T21:09:47.490Z,97355.48
2022-12-08T21:13:26.148Z,97351.42
2022-12-08T21:17:22.590Z,97350.27
2022-12-08T21:20:45.508Z,97352.02
2022-12-08T21:24:41.766Z,97352.23
2022-12-08T21:28:06.220Z,97349.77
2022-12-08T21:31:41.295Z,97349.83
2022-12-08T21:35:18.959Z,97347.98
2022-12-08T21:38:58.289Z,97345.68
2022-12-08T21:42:46.358Z,97348.21
2022-12-08T21:46:31.261Z,97348.63
2022-12-08T21:49:53.359Z,97350.11
2022-12-08T21:53:31.099Z,97341.90
2022-12-08T21:57:27.865Z,97340.92
2022-12-08T22:00:50.133Z,97339.25
2022-12-08T22:04:47.422Z,97336.64
2022-12-08T22:08:12.856Z,97336.50
2022-12-08T22:12:06.048Z,97334.52
2022-12-08T22:15:58.881Z,97331.59
2022-12-08T22:19:20.912Z,97330.28
2022-12-08T22:22:58.611Z,97329.88
2022-12-08T22:26:36.169Z,97327.64
2022-12-08T22:30:14.122Z,97330.95
2022-12-08T22:33:51.783Z,97333.86
2022-12-08T22:37:29.365Z,97335.26
2022-12-08T22:41:07.077Z,97336.34
2022-12-08T22:45:04.026Z,97333.52
2022-12-08T22:48:26.288Z,97326.37
2022-12-08T22:52:22.845Z,97325.81
2022-12-08T22:56:05.115Z,97320.23
2022-12-08T22:59:30.335Z,97316.48
2022-12-08T23:03:23.750Z,97313.48
2022-12-08T23:06:45.833Z,97315.26
2022-12-08T23:10:44.729Z,97318.09
2022-12-08T23:14:25.320Z,97316.57
2022-12-08T23:17:47.637Z,97316.31
2022-12-08T23:21:25.437Z,97315.47
2022-12-08T23:25:21.705Z,97312.98
2022-12-08T23:28:43.841Z,97318.73
2022-12-08T23:32:21.744Z,97311.38
2022-12-08T23:35:59.226Z,97303.30
2022-12-08T23:39:55.695Z,97307.02
2022-12-08T23:43:17.690Z,97312.11
2022-12-08T23:46:55.396Z,97313.19
2022-12-08T23:50:52.716Z,97315.73
2022-12-08T23:54:15.037Z,97318.45
2022-12-08T23:57:52.361Z,97314.78
